Lewistown Junction, Pennsylvania
Current Conditions -  °F | °C
As of 4:55 AM on Friday 28 Nov 2014 (Local Time) from KUNV Reporting Station
Scattered Clouds Scattered Clouds  
Wind Chill: 19°   Ceiling: Unl
Heat Index: 28°   Visibility: 10mi
Dew Point: 18°   Wind: 8mph
Humidity: 68%   Direction: 300°WNW
Pressure: 30.16"   Gusts: NA
Location:  40.6073°N, 77.5812°W
Report Text: KUNV 280955Z AUTO 30007KT 10SM SCT031 M02/M08 A3016 RMK AO2 T10251076
Loading
Personal Weather Stations






























Interactive Weather Map New forecast layout! Learn more

10-Day Weather Forecast

Advertisements
Track Severe Weather on mobile